Time;durP1;ratioP1;P1;durP2;ratioP2;P2;SDS_P1;SDS_P2;PMS_P1;PMS_P2;Temp;Humidity;BMP_temperature;BMP_pressure;BME280_temperature;BME280_humidity;BME280_pressure;Samples;Min_cycle;Max_cycle;Signal;HPM_P1;HPM_P2
2022/10/20 04:32:00;;;;;;;15.57;8.10;;;7.00;99.90;;;;;;6016583;23;20030;31
2022/10/20 04:37:14;;;;;;;14.20;7.78;;;7.00;99.90;;;;;;5582480;23;20074;-96
2022/10/20 04:48:06;;;;;;;15.00;7.80;;;7.10;99.90;;;;;;5240827;23;20055;-96
2022/10/20 04:50:35;;;;;;;15.38;8.80;;;7.10;99.90;;;;;;4916791;29;20047;-94
2022/10/20 06:00:28;;;;;;;16.25;10.05;;;7.00;99.90;;;;;;853869;23;20336;-90
2022/10/20 06:02:54;;;;;;;17.38;10.40;;;7.00;99.90;;;;;;4907125;29;20354;-95
2022/10/20 06:05:20;;;;;;;18.65;12.65;;;7.00;99.90;;;;;;4906998;29;20049;-95
2022/10/20 06:07:45;;;;;;;16.30;11.65;;;7.00;99.90;;;;;;4882403;29;20037;-96
2022/10/20 06:10:11;;;;;;;17.55;11.90;;;7.00;99.90;;;;;;4886855;29;20046;-95
2022/10/20 06:12:37;;;;;;;18.80;12.82;;;7.00;99.90;;;;;;4868153;29;20056;-96
2022/10/20 06:15:03;;;;;;;16.55;12.48;;;7.00;99.90;;;;;;4895360;29;20116;-94
2022/10/20 06:17:28;;;;;;;17.40;12.80;;;7.00;99.90;;;;;;4893645;29;20044;-94
2022/10/20 06:19:54;;;;;;;19.20;17.20;;;7.00;99.90;;;;;;4907399;29;20580;-94
2022/10/20 06:22:20;;;;;;;17.85;11.88;;;7.00;99.90;;;;;;4888063;29;20040;-96
2022/10/20 06:24:46;;;;;;;17.88;11.38;;;7.00;99.90;;;;;;4886461;29;20055;-93
2022/10/20 06:27:11;;;;;;;16.88;11.45;;;7.00;99.90;;;;;;4876320;29;20059;-95
2022/10/20 06:29:38;;;;;;;18.95;11.60;;;7.00;99.90;;;;;;4893841;29;20042;-96
2022/10/20 06:32:04;;;;;;;19.88;17.75;;;7.00;99.90;;;;;;4879986;29;20052;-95
2022/10/20 06:34:30;;;;;;;18.00;12.60;;;7.10;99.90;;;;;;4879871;29;20051;-96
2022/10/20 06:36:55;;;;;;;18.73;13.63;;;7.10;99.90;;;;;;4885575;29;20056;-96
2022/10/20 06:39:23;;;;;;;18.05;12.82;;;7.10;99.90;;;;;;4868084;29;20052;-94
2022/10/20 06:41:51;;;;;;;17.23;12.07;;;7.10;99.90;;;;;;4885528;29;20044;-96
2022/10/20 06:44:17;;;;;;;19.50;13.40;;;7.10;99.90;;;;;;4885111;29;20051;-95
2022/10/20 06:46:44;;;;;;;18.13;11.98;;;7.10;99.90;;;;;;4874890;29;20104;-96
2022/10/20 06:49:10;;;;;;;19.48;12.98;;;7.10;99.90;;;;;;4889947;29;20085;-95
2022/10/20 12:40:29;;;;;;;15.13;12.70;;;12.70;99.90;;;;;;1663491;23;20185;-93
2022/10/20 12:43:08;;;;;;;15.68;12.93;;;12.80;99.90;;;;;;5032802;23;20106;-95
2022/10/20 12:45:40;;;;;;;15.32;12.73;;;12.70;99.90;;;;;;4895985;29;20120;-95
2022/10/20 12:48:08;;;;;;;17.30;13.05;;;12.70;99.90;;;;;;4910133;29;20041;-95
2022/10/20 12:50:44;;;;;;;16.33;13.32;;;12.70;99.90;;;;;;4891275;29;20044;-96
2022/10/20 12:53:25;;;;;;;16.27;13.15;;;12.60;99.90;;;;;;4900850;29;20047;-96
2022/10/20 12:56:04;;;;;;;16.15;13.95;;;12.60;99.90;;;;;;4883512;29;20068;-95
2022/10/20 12:58:33;;;;;;;16.70;13.25;;;12.70;99.90;;;;;;4916133;29;20158;-95
2022/10/20 13:01:02;;;;;;;16.52;13.25;;;12.60;99.90;;;;;;4898903;29;20103;-96
2022/10/20 13:03:30;;;;;;;16.33;13.90;;;12.50;99.90;;;;;;4897882;29;20050;-92
2022/10/20 13:05:57;;;;;;;16.88;13.85;;;12.60;99.90;;;;;;4874607;29;20051;-93
2022/10/20 13:08:26;;;;;;;15.13;13.38;;;12.50;99.90;;;;;;4898348;29;20052;-95
2022/10/20 13:10:52;;;;;;;15.20;13.45;;;12.60;99.90;;;;;;4869758;29;20041;-96
2022/10/20 13:13:18;;;;;;;15.50;13.68;;;12.50;99.90;;;;;;4899006;29;20040;-96
2022/10/20 13:15:44;;;;;;;15.85;13.85;;;12.60;99.90;;;;;;4903983;29;20136;-96
2022/10/20 13:53:45;;;;;;;19.33;16.70;;;12.40;99.90;;;;;;5932107;23;20027;-96
2022/10/20 13:59:04;;;;;;;20.95;18.65;;;12.40;99.90;;;;;;5160073;23;20023;-96
2022/10/20 14:01:32;;;;;;;21.13;18.60;;;12.30;99.90;;;;;;5557880;23;20436;-96
2022/10/20 14:15:19;;;;;;;25.50;21.27;;;12.30;99.90;;;;;;4960859;29;20084;-95
2022/10/20 14:20:21;;;;;;;26.27;23.47;;;12.30;99.90;;;;;;5802039;23;20019;-96
2022/10/20 14:22:49;;;;;;;27.45;23.05;;;12.30;99.90;;;;;;5263838;23;20055;-96
2022/10/20 14:27:52;;;;;;;24.55;21.95;;;12.30;99.90;;;;;;4940717;23;20161;-96
2022/10/20 14:32:48;;;;;;;26.08;23.15;;;12.40;99.90;;;;;;5031308;23;20047;-96
2022/10/20 14:35:29;;;;;;;25.50;22.40;;;12.40;99.90;;;;;;5134482;23;20067;-95
2022/10/20 14:38:03;;;;;;;26.92;22.73;;;12.50;99.90;;;;;;4954850;23;20073;-96
2022/10/20 14:40:33;;;;;;;24.15;21.58;;;12.50;99.90;;;;;;4897387;29;20060;-96
2022/10/20 14:43:04;;;;;;;25.98;22.95;;;12.40;99.90;;;;;;4923232;23;20064;-96
2022/10/20 14:45:33;;;;;;;28.50;23.25;;;12.60;99.90;;;;;;4916765;28;20058;-96
2022/10/20 14:48:00;;;;;;;25.13;22.42;;;12.60;99.90;;;;;;5162535;23;20067;-96
2022/10/20 22:26:50;;;;;;;34.08;27.30;;;11.70;99.90;;;;;;4918859;29;20080;-96
2022/10/20 22:29:17;;;;;;;34.47;28.08;;;11.60;99.90;;;;;;4890699;29;20048;-95
2022/10/20 22:31:43;;;;;;;37.28;29.70;;;11.70;99.90;;;;;;4896325;29;20040;-96
2022/10/20 22:34:09;;;;;;;33.53;28.23;;;11.60;99.90;;;;;;4901858;29;20064;-96
2022/10/20 22:36:36;;;;;;;33.95;28.08;;;11.60;99.90;;;;;;4906688;29;20055;-95
2022/10/20 22:39:03;;;;;;;37.45;29.05;;;11.60;99.90;;;;;;4882067;29;20506;-95
2022/10/20 22:41:28;;;;;;;45.80;32.97;;;11.50;99.90;;;;;;4891288;29;20128;-96
2022/10/20 22:43:54;;;;;;;45.28;31.50;;;11.50;99.90;;;;;;4905580;29;20127;-95
2022/10/20 22:46:19;;;;;;;36.00;28.80;;;11.50;99.90;;;;;;4906034;29;20040;-95
2022/10/20 22:48:45;;;;;;;30.48;26.73;;;11.50;99.90;;;;;;4897033;29;20048;-95
2022/10/20 22:51:11;;;;;;;33.13;27.67;;;11.50;99.90;;;;;;4895722;29;20100;-95
2022/10/20 22:53:37;;;;;;;34.00;27.02;;;11.50;99.90;;;;;;4889577;29;21318;-94
2022/10/20 22:56:23;;;;;;;38.28;29.25;;;11.50;99.90;;;;;;4888687;29;20060;-95
2022/10/20 22:58:51;;;;;;;30.92;26.67;;;11.40;99.90;;;;;;4889151;29;20048;-96
2022/10/20 23:01:19;;;;;;;33.50;27.63;;;11.40;99.90;;;;;;4882829;29;20047;-95
2022/10/20 23:03:45;;;;;;;37.33;28.50;;;11.40;99.90;;;;;;4884967;29;20052;-96
2022/10/20 23:06:14;;;;;;;32.88;28.00;;;11.40;99.90;;;;;;4897994;29;20092;-94
2022/10/20 23:08:45;;;;;;;36.17;30.10;;;11.40;99.90;;;;;;4891144;29;20047;-96
2022/10/20 23:11:12;;;;;;;36.45;28.00;;;11.50;99.90;;;;;;4895755;29;20493;-96
2022/10/20 23:13:37;;;;;;;35.10;28.27;;;11.40;99.90;;;;;;4871138;29;20081;-96
2022/10/20 23:16:03;;;;;;;37.20;29.92;;;11.40;99.90;;;;;;4903788;29;20052;-95
2022/10/20 23:18:29;;;;;;;50.65;32.65;;;11.40;99.90;;;;;;4872808;29;20044;-94
2022/10/20 23:20:55;;;;;;;36.20;30.35;;;11.40;99.90;;;;;;4892655;29;20103;-95
2022/10/20 23:23:20;;;;;;;37.70;29.90;;;11.40;99.90;;;;;;4901440;29;20071;-96
2022/10/20 23:25:49;;;;;;;40.75;32.03;;;11.50;99.90;;;;;;4896469;29;20052;-96
2022/10/20 23:28:14;;;;;;;35.17;29.70;;;11.40;99.90;;;;;;4901045;29;20059;-96
2022/10/20 23:30:40;;;;;;;49.42;33.45;;;11.50;99.90;;;;;;4874657;29;20032;-96
2022/10/20 23:33:06;;;;;;;36.10;27.95;;;11.50;99.90;;;;;;4897144;29;20048;-96
2022/10/20 23:35:36;;;;;;;35.60;29.23;;;11.40;99.90;;;;;;4894976;29;20032;-95
2022/10/20 23:38:02;;;;;;;35.70;28.00;;;11.40;99.90;;;;;;4876615;29;20074;-96
2022/10/20 23:40:28;;;;;;;35.35;29.58;;;11.40;99.90;;;;;;4877880;29;20536;-96
2022/10/20 23:42:54;;;;;;;44.72;31.63;;;11.50;99.90;;;;;;4914629;29;20469;-95
2022/10/20 23:45:19;;;;;;;34.22;28.50;;;11.40;99.90;;;;;;4879462;29;20040;-95
2022/10/20 23:47:45;;;;;;;38.85;30.17;;;11.40;99.90;;;;;;4904731;29;20046;-96
2022/10/20 23:50:10;;;;;;;38.13;29.40;;;11.40;99.90;;;;;;4893259;29;20549;-94
2022/10/20 23:52:36;;;;;;;40.35;29.67;;;11.40;99.90;;;;;;4894325;29;20036;-95
2022/10/20 23:55:02;;;;;;;40.55;30.73;;;11.40;99.90;;;;;;4908221;29;20057;-96
2022/10/20 23:57:28;;;;;;;40.90;31.67;;;11.40;99.90;;;;;;4897989;29;20045;-94
2022/10/20 23:59:53;;;;;;;38.67;29.75;;;11.50;99.90;;;;;;4896213;29;20036;-96
